FKKDFKYS

Guest
Details From FKKD - Douala
To FKYS - YAOUNDE NSIMALEN
Flight Number -
Tags generated
Created
Modified
Stats Distance 111 nm / 206 km
Max Altitude 9,500 ft / 2,896 m
Waypoints 3
Social Downloads 0
Likes 0
Share VATSIM

Download

Looking for another format? Having issues loading an existing format? Contact us
Advertisement - Login to hide

Notes

Basic altitude profile: - Ascent Rate: 2500ft/min - Ascent Speed: 250kts - Cruise Altitude: 19000ft - Cruise Speed: 300kts - Descent Rate: 1500ft/min - Descent Speed: 250kts Options: - Use NATs: yes - Use PACOTS: yes - Use low airways: yes - Use high airways: yes

Route

FKKD ENUGI FKYS

ID Type Via Altitude Latitude Longitude Leg Dist Tot Dist Heading (true) Name
O FKKD APT - 0 ft / 0 m 4.01421˚ 9.71654˚ - 0 nm - Douala
ENUGI FIX - 9,500 ft / 2,896 m 3.83556˚ 10.81667˚ 66 nm 66 nm 99° / 99° -
O FKYS APT - 0 ft / 0 m 3.72255˚ 11.55327˚ 44 nm 111 nm 99° / 99° YAOUNDE NSIMALEN

Altitude Profile

Advertisement - Login to hide

FKKD

Details ICAO FKKD (DLA)
Name Douala
Region Cameroon
Timezone Africa/Douala (UTC+1.0)
Stats Elevation 33 ft / 10 m (AMSL)
Location 4.014208° 9.716538°
Runways 2
Magnetic Variation 1.104° W

METAR

FKKD 180700Z VRB03KT 1600 BR BKN013 FEW016CB 27/26 Q1012 BECMG 1000 BR

Decode

TAF

TAF FKKD 180500Z 1806/1912 VRB04KT 8000 BKN013 FEW016CB TEMPO 1806/1808 2000 BR BECMG 1808/1810 SCT016 FEW020CB TEMPO 1903/1907 2000 BR

Decode

Departure Runways

ID Width Length Bearing (true) Bearing (mag) Surface Threshold Offset Overrun Length
03 147 ft / 45 m 8,210 ft / 2,502 m 27.00° 28.10° Asphalt 350 ft / 107 m 0 ft / 0 m
12 148 ft / 45 m 9,363 ft / 2,854 m 116.94° 118.04° Asphalt 0 ft / 0 m 164 ft / 50 m
21 147 ft / 45 m 8,210 ft / 2,502 m 207.00° 208.10° Asphalt 350 ft / 107 m 0 ft / 0 m
30 148 ft / 45 m 9,363 ft / 2,854 m 296.94° 298.04° Asphalt 0 ft / 0 m 164 ft / 50 m

FKYS

Details ICAO FKYS (NSI)
Name YAOUNDE NSIMALEN
Region Cameroon
Timezone Africa/Douala (UTC+1.0)
Stats Elevation 2,278 ft / 694 m (AMSL)
Location 3.722554° 11.553270°
Runways 1
Magnetic Variation 0.689° W

METAR

FKYS 180700Z 00000KT 6000 SCT006 22/22 Q1017 NOSIG

Decode

TAF

TAF FKYS 180500Z 1806/1906 VRB04KT 8000 BKN006 TEMPO 1806/1808 2000 BR BECMG 1808/1810 SCT016 BECMG 1820/1822 BKN006 TEMPO 1903/1906 2000 BR

Decode

Destination Runways

ID Width Length Bearing (true) Bearing (mag) Surface Threshold Offset Overrun Length
01 148 ft / 45 m 11,220 ft / 3,420 m 9.87° 10.56° Asphalt 0 ft / 0 m 200 ft / 61 m
19 148 ft / 45 m 11,220 ft / 3,420 m 189.87° 190.56° Asphalt 0 ft / 0 m 200 ft / 61 m

Popular Alternatives